createdAt,value
2024-04-03T00:00:01.480Z,75
2024-04-03T00:01:03.224Z,75.2
2024-04-03T00:02:01.656Z,75.5
2024-04-03T00:03:03.384Z,75.4
2024-04-03T00:04:03.465Z,75.1
2024-04-03T00:05:03.598Z,75.3
2024-04-03T00:06:03.734Z,75.4
2024-04-03T00:07:02.162Z,76
2024-04-03T00:08:01.262Z,76.3
2024-04-03T00:09:01.387Z,76.4
2024-04-03T00:10:03.106Z,76.1
2024-04-03T00:11:01.612Z,76
2024-04-03T00:12:01.722Z,76.2
2024-04-03T00:13:01.774Z,75.8
2024-04-03T00:14:01.939Z,75.9
2024-04-03T00:15:03.659Z,75.9
2024-04-03T00:16:02.104Z,76.2
2024-04-03T00:17:03.842Z,76.3
2024-04-03T00:18:01.300Z,76.5
2024-04-03T00:19:01.398Z,76
2024-04-03T00:20:01.491Z,76.2
2024-04-03T00:21:01.621Z,76.4
2024-04-03T00:22:01.714Z,76.3
2024-04-03T00:23:03.482Z,76.1
2024-04-03T00:24:01.901Z,76
2024-04-03T00:25:03.651Z,76.3
2024-04-03T00:26:03.750Z,76.4
2024-04-03T00:27:03.912Z,76.2
2024-04-03T00:28:03.046Z,75.8
2024-04-03T00:29:01.438Z,75.8
2024-04-03T00:30:01.546Z,76.1
2024-04-03T00:31:01.656Z,76.1
2024-04-03T00:32:03.422Z,76.1
2024-04-03T00:33:01.866Z,76.4
2024-04-03T00:34:03.624Z,76.3
2024-04-03T00:35:02.066Z,76.5
2024-04-03T00:36:02.178Z,76.4
2024-04-03T00:37:01.276Z,76.4
2024-04-03T00:38:03.035Z,76.3
2024-04-03T00:39:03.137Z,76.2
2024-04-03T00:40:03.209Z,76.3
2024-04-03T00:41:01.684Z,76.3
2024-04-03T00:42:01.817Z,76.4
2024-04-03T00:43:03.471Z,76.3
2024-04-03T00:44:01.984Z,76.5
2024-04-03T00:45:03.734Z,76.4
2024-04-03T00:46:03.885Z,76.5
2024-04-03T00:47:01.290Z,76.6
2024-04-03T00:48:01.437Z,76.7
2024-04-03T00:49:01.533Z,76.7
2024-04-03T00:50:01.666Z,76.8
2024-04-03T00:51:03.386Z,76.9
2024-04-03T00:52:01.798Z,76.9
2024-04-03T00:53:01.932Z,76.9
2024-04-03T00:54:02.052Z,76.8
2024-04-03T00:55:02.132Z,77
2024-04-03T00:56:02.252Z,77
2024-04-03T00:57:02.992Z,77.1
2024-04-03T00:58:03.074Z,77
2024-04-03T00:59:01.553Z,77
2024-04-03T01:00:01.643Z,77
2024-04-03T01:01:01.759Z,77
2024-04-03T01:02:01.829Z,77.4
2024-04-03T01:03:01.984Z,77.3
2024-04-03T01:04:02.044Z,77.2
2024-04-03T01:05:02.147Z,77
2024-04-03T01:06:02.958Z,77.1
2024-04-03T01:07:01.352Z,77.2
2024-04-03T01:08:01.480Z,77
2024-04-03T01:09:01.581Z,77.1
2024-04-03T01:10:03.301Z,77.1
2024-04-03T01:11:01.818Z,77.2
2024-04-03T01:12:01.910Z,77.2
2024-04-03T01:13:02.000Z,77.2
2024-04-03T01:14:03.747Z,77
2024-04-03T01:15:02.176Z,77.1
2024-04-03T01:16:02.948Z,76.9
2024-04-03T01:17:03.065Z,77
2024-04-03T01:18:03.209Z,76.7
2024-04-03T01:19:03.267Z,77
2024-04-03T01:20:03.359Z,76.8
2024-04-03T01:21:01.811Z,76.7
2024-04-03T01:22:01.946Z,76.8
2024-04-03T01:23:02.044Z,77.2
2024-04-03T01:24:03.750Z,76.9
2024-04-03T01:25:02.249Z,77
2024-04-03T01:26:03.011Z,77
2024-04-03T01:27:03.075Z,77
2024-04-03T01:28:03.206Z,77.1
2024-04-03T01:29:01.680Z,77.1
2024-04-03T01:30:03.392Z,77.1
2024-04-03T01:31:03.507Z,77.2
2024-04-03T01:32:03.589Z,77.2
2024-04-03T01:33:03.682Z,77
2024-04-03T01:34:03.850Z,76.8
2024-04-03T01:36:03.014Z,76.8
2024-04-03T01:37:01.442Z,76.7
2024-04-03T01:38:03.260Z,76.9
2024-04-03T01:39:03.292Z,76.8
2024-04-03T01:40:01.766Z,76.7
2024-04-03T01:41:01.878Z,76.9
2024-04-03T01:42:01.976Z,77
2024-04-03T01:43:02.053Z,77
2024-04-03T01:44:02.202Z,77.2
2024-04-03T01:45:01.320Z,77
2024-04-03T01:46:03.141Z,77
2024-04-03T01:47:01.534Z,77
2024-04-03T01:48:03.246Z,77
2024-04-03T01:49:03.328Z,76.9
2024-04-03T01:50:03.484Z,76.9
2024-04-03T01:51:03.564Z,77.1
2024-04-03T01:52:03.673Z,77.1
2024-04-03T01:53:02.124Z,77.3
2024-04-03T01:54:02.248Z,77.4
2024-04-03T01:55:02.988Z,77.2
2024-04-03T01:56:03.076Z,77.2
2024-04-03T01:57:03.249Z,77.3
2024-04-03T01:58:01.649Z,77.4
2024-04-03T01:59:03.409Z,77.4
2024-04-03T02:00:01.848Z,77.1
2024-04-03T02:01:03.578Z,77.1
2024-04-03T02:02:03.682Z,77.3
2024-04-03T02:03:02.157Z,77.4
2024-04-03T02:04:01.264Z,77.4
2024-04-03T02:05:01.393Z,77.5
2024-04-03T02:06:01.488Z,77.5
2024-04-03T02:07:03.220Z,77.4
2024-04-03T02:08:01.676Z,77.4
2024-04-03T02:09:01.771Z,77.4
2024-04-03T02:10:03.573Z,77.5
2024-04-03T02:11:03.618Z,77.6
2024-04-03T02:12:02.108Z,77.5
2024-04-03T02:13:02.225Z,77.6
2024-04-03T02:14:01.292Z,77.6
2024-04-03T02:15:03.003Z,77.7
2024-04-03T02:16:01.471Z,77.6
2024-04-03T02:17:01.555Z,77.5
2024-04-03T02:18:03.376Z,77.5
2024-04-03T02:19:01.804Z,77.4
2024-04-03T02:20:01.915Z,77.5
2024-04-03T02:21:02.049Z,77.7
2024-04-03T02:22:03.758Z,77.7
2024-04-03T02:23:06.019Z,77.8
2024-04-03T02:24:12.761Z,77.7
2024-04-03T02:25:03.076Z,77.7
2024-04-03T02:26:01.539Z,77.9
2024-04-03T02:27:01.649Z,78
2024-04-03T02:28:01.817Z,78
2024-04-03T02:29:03.465Z,78
2024-04-03T02:30:03.596Z,78.3
2024-04-03T02:31:02.089Z,78.3
2024-04-03T02:32:02.158Z,78.4
2024-04-03T02:34:02.976Z,78.3
2024-04-03T02:35:01.463Z,78.3
2024-04-03T02:36:01.572Z,78.3
2024-04-03T02:37:03.322Z,78.4
2024-04-03T02:38:03.409Z,78.2
2024-04-03T02:39:03.490Z,78.2
2024-04-03T02:40:01.964Z,78.3
2024-04-03T02:41:02.072Z,78.3
2024-04-03T02:42:02.200Z,78.4
2024-04-03T02:43:01.319Z,78.3
2024-04-03T02:44:01.429Z,78.3
2024-04-03T02:45:03.110Z,78.3
2024-04-03T02:46:01.604Z,78.3
2024-04-03T02:47:03.370Z,78.3
2024-04-03T02:48:01.838Z,78.4
2024-04-03T02:49:01.953Z,78.6
2024-04-03T02:50:03.683Z,78.7
2024-04-03T02:51:02.180Z,78.7
2024-04-03T02:52:03.902Z,78.9
2024-04-03T02:53:02.968Z,79
2024-04-03T02:54:01.463Z,79
2024-04-03T02:55:03.195Z,79.1
2024-04-03T02:56:03.300Z,79.1
2024-04-03T02:57:03.371Z,79
2024-04-03T02:58:01.845Z,79.1
2024-04-03T02:59:01.938Z,79.1
2024-04-03T03:00:02.049Z,79
2024-04-03T03:01:03.787Z,79
2024-04-03T03:02:02.257Z,79.1
2024-04-03T03:03:03.007Z,79.2
2024-04-03T03:04:01.453Z,79.3
2024-04-03T03:05:01.569Z,79.4
2024-04-03T03:06:01.692Z,79.5
2024-04-03T03:07:03.387Z,79.7
2024-04-03T03:08:01.881Z,79.9
2024-04-03T03:09:01.990Z,80.1
2024-04-03T03:10:03.706Z,80.3
2024-04-03T03:11:03.833Z,80.3
2024-04-03T03:12:01.254Z,80.5
2024-04-03T03:13:01.350Z,80.8
2024-04-03T03:14:01.459Z,80.9
2024-04-03T03:15:03.257Z,81
2024-04-03T03:16:01.670Z,81
2024-04-03T03:17:01.790Z,81.1
2024-04-03T03:18:01.854Z,81
2024-04-03T03:19:02.001Z,80.9
2024-04-03T03:20:02.078Z,80.8
2024-04-03T03:21:03.867Z,80.6
2024-04-03T03:22:01.280Z,80.6
2024-04-03T03:23:03.034Z,80.6
2024-04-03T03:24:03.095Z,80.6
2024-04-03T03:25:01.623Z,80.6
2024-04-03T03:26:01.699Z,80.6
2024-04-03T03:27:01.803Z,80.7
2024-04-03T03:28:01.931Z,80.7
2024-04-03T03:29:03.618Z,80.7
2024-04-03T03:30:03.741Z,80.7
2024-04-03T03:31:02.268Z,80.7
2024-04-03T03:32:03.002Z,80.7
2024-04-03T03:33:01.426Z,80.7
2024-04-03T03:34:01.553Z,80.7
2024-04-03T03:35:03.265Z,80.7
2024-04-03T03:36:03.394Z,80.7
2024-04-03T03:37:03.513Z,80.7
2024-04-03T03:38:01.922Z,80.7
2024-04-03T03:39:03.680Z,80.7
2024-04-03T03:40:03.775Z,80.8
2024-04-03T03:41:02.257Z,80.8
2024-04-03T03:42:02.982Z,80.9
2024-04-03T03:43:01.443Z,81
2024-04-03T03:44:01.560Z,81.1
2024-04-03T03:45:03.234Z,81.1
2024-04-03T03:46:01.733Z,81.2
2024-04-03T03:47:01.867Z,81.3
2024-04-03T03:48:02.001Z,81.4
2024-04-03T03:49:02.056Z,81.5
2024-04-03T03:50:03.846Z,81.5
2024-04-03T03:51:02.907Z,81.5
2024-04-03T03:52:03.049Z,81.5
2024-04-03T03:53:03.099Z,81.5
2024-04-03T03:54:03.213Z,81.5
2024-04-03T03:55:01.728Z,81.5
2024-04-03T03:56:01.792Z,81.5
2024-04-03T03:57:03.511Z,81.6
2024-04-03T03:58:01.998Z,81.6
2024-04-03T03:59:02.082Z,81.7
2024-04-03T04:00:03.833Z,81.8
2024-04-03T04:01:02.944Z,81.9
2024-04-03T04:02:01.422Z,81.9
2024-04-03T04:03:01.550Z,82
2024-04-03T04:04:01.625Z,82
2024-04-03T04:05:03.351Z,82.1
2024-04-03T04:06:03.500Z,82.2
2024-04-03T04:07:03.574Z,82.4
2024-04-03T04:08:02.046Z,82.3
2024-04-03T04:09:03.771Z,82.2
2024-04-03T04:10:03.826Z,82.4
2024-04-03T04:11:01.326Z,82.5
2024-04-03T04:12:03.101Z,82.6
2024-04-03T04:13:01.504Z,82.7
2024-04-03T04:14:01.605Z,82.7
2024-04-03T04:15:01.774Z,82.7
2024-04-03T04:16:03.491Z,82.6
2024-04-03T04:17:01.936Z,82.6
2024-04-03T04:18:02.058Z,82.7
2024-04-03T04:19:02.160Z,82.8
2024-04-03T04:21:03.001Z,82.9
2024-04-03T04:22:03.105Z,83.1
2024-04-03T04:23:01.572Z,83.2
2024-04-03T04:24:03.293Z,83.3
2024-04-03T04:25:01.774Z,83.5
2024-04-03T04:26:03.480Z,83.6
2024-04-03T04:27:01.976Z,83.7
2024-04-03T04:28:03.732Z,83.9
2024-04-03T04:29:03.818Z,84
2024-04-03T04:30:01.264Z,84.1
2024-04-03T04:31:03.014Z,84
2024-04-03T04:32:01.493Z,84.2
2024-04-03T04:33:01.578Z,84.2
2024-04-03T04:34:03.359Z,84.3
2024-04-03T04:35:04.206Z,84.3
2024-04-03T04:36:01.871Z,84.4
2024-04-03T04:37:02.052Z,84.4
2024-04-03T04:38:02.078Z,84.4
2024-04-03T04:39:03.836Z,84.4
2024-04-03T04:40:01.286Z,84.3
2024-04-03T04:41:03.082Z,84.3
2024-04-03T04:42:01.503Z,84.2
2024-04-03T04:43:01.599Z,84.4
2024-04-03T04:44:01.685Z,84.5
2024-04-03T04:45:03.485Z,84.7
2024-04-03T04:46:03.655Z,84.8
2024-04-03T04:47:03.683Z,84.9
2024-04-03T04:48:03.807Z,85
2024-04-03T04:50:01.352Z,84.9
2024-04-03T04:51:01.479Z,85
2024-04-03T04:52:03.235Z,85
2024-04-03T04:53:03.332Z,85.1
2024-04-03T04:54:03.402Z,85.1
2024-04-03T04:55:03.545Z,85.2
2024-04-03T04:56:01.989Z,85.2
2024-04-03T04:57:03.716Z,85.2
2024-04-03T04:58:02.172Z,85.4
2024-04-03T04:59:01.259Z,85.4
2024-04-03T05:00:03.018Z,85.4
2024-04-03T05:01:01.490Z,85.6
2024-04-03T05:02:01.613Z,85.5
2024-04-03T05:03:01.671Z,85.6
2024-04-03T05:04:03.414Z,85.7
2024-04-03T05:05:01.875Z,85.7
2024-04-03T05:06:03.638Z,86
2024-04-03T05:07:03.799Z,86.2
2024-04-03T05:08:02.204Z,86.2
2024-04-03T05:09:02.956Z,86.3
2024-04-03T05:10:03.074Z,86.4
2024-04-03T05:11:03.209Z,86.5
2024-04-03T05:12:01.641Z,86.6
2024-04-03T05:13:01.908Z,86.6
2024-04-03T05:14:01.836Z,86.7
2024-04-03T05:15:01.942Z,86.7
2024-04-03T05:16:02.039Z,86.7
2024-04-03T05:17:02.140Z,86.7
2024-04-03T05:18:02.263Z,86.8
2024-04-03T05:19:01.411Z,86.7
2024-04-03T05:20:01.453Z,86.7
2024-04-03T05:21:03.208Z,86.7
2024-04-03T05:22:03.326Z,86.7
2024-04-03T05:23:01.824Z,86.7
2024-04-03T05:24:01.905Z,86.8
2024-04-03T05:25:01.969Z,86.7
2024-04-03T05:26:03.734Z,86.7
2024-04-03T05:27:03.810Z,86.7
2024-04-03T05:28:01.304Z,86.7
2024-04-03T05:29:01.427Z,86.7
2024-04-03T05:30:01.543Z,86.7
2024-04-03T05:31:03.236Z,86.6
2024-04-03T05:32:03.342Z,86.7
2024-04-03T05:33:03.460Z,86.8
2024-04-03T05:34:03.543Z,86.7
2024-04-03T05:35:03.696Z,86.7
2024-04-03T05:36:02.118Z,86.6
2024-04-03T05:37:03.899Z,86.6
2024-04-03T05:38:01.325Z,86.6
2024-04-03T05:39:01.411Z,86.5
2024-04-03T05:40:01.608Z,86.6
2024-04-03T05:41:06.537Z,86.6
2024-04-03T05:42:03.358Z,86.6
2024-04-03T05:43:03.484Z,86.6
2024-04-03T05:44:03.590Z,86.7
2024-04-03T05:45:02.084Z,86.8
2024-04-03T05:46:03.920Z,86.8
2024-04-03T05:47:01.315Z,86.9
2024-04-03T05:48:03.027Z,86.9
2024-04-03T05:49:03.158Z,86.8
2024-04-03T05:50:01.587Z,86.8
2024-04-03T05:51:01.681Z,86.7
2024-04-03T05:52:03.456Z,86.7
2024-04-03T05:53:01.923Z,86.7
2024-04-03T05:54:01.980Z,86.6
2024-04-03T05:55:02.131Z,86.6
2024-04-03T05:56:03.858Z,86.5
2024-04-03T05:57:01.308Z,85.9
2024-04-03T05:58:01.442Z,85.6
2024-04-03T05:59:01.527Z,85.6
2024-04-03T06:00:01.633Z,85.3
2024-04-03T06:01:01.765Z,84.6
2024-04-03T06:02:01.815Z,84.7
2024-04-03T06:03:01.908Z,84.3
2024-04-03T06:04:02.007Z,84.7
2024-04-03T06:05:02.183Z,84.3
2024-04-03T06:06:02.268Z,84
2024-04-03T06:07:02.957Z,83.8
2024-04-03T06:08:03.090Z,83.7
2024-04-03T06:09:03.178Z,83.5
2024-04-03T06:10:01.627Z,83.4
2024-04-03T06:11:01.783Z,83.3
2024-04-03T06:12:03.499Z,83
2024-04-03T06:13:01.937Z,82.9
2024-04-03T06:14:03.703Z,82.9
2024-04-03T06:15:03.791Z,82.7
2024-04-03T06:16:02.296Z,82.8
2024-04-03T06:17:02.987Z,83.1
2024-04-03T06:18:01.514Z,82.3
2024-04-03T06:19:03.207Z,82
2024-04-03T06:20:01.675Z,82.2
2024-04-03T06:21:03.432Z,82.2
2024-04-03T06:22:01.880Z,82.6
2024-04-03T06:23:03.619Z,82.4
2024-04-03T06:24:02.065Z,82
2024-04-03T06:25:02.195Z,81.6
2024-04-03T06:26:02.940Z,81.1
2024-04-03T06:27:03.014Z,81.4
2024-04-03T06:28:03.149Z,81.9
2024-04-03T06:29:01.597Z,81.4
2024-04-03T06:30:01.748Z,81.5
2024-04-03T06:31:01.848Z,81.6
2024-04-03T06:32:01.923Z,81.8
2024-04-03T06:33:03.667Z,82.1
2024-04-03T06:34:03.749Z,81.4
2024-04-03T06:35:02.244Z,81.3
2024-04-03T06:36:01.331Z,80.5
2024-04-03T06:37:03.082Z,80.3
2024-04-03T06:38:01.539Z,80.9
2024-04-03T06:39:01.637Z,80.2
2024-04-03T06:40:01.779Z,80.3
2024-04-03T06:41:03.466Z,80.7
2024-04-03T06:42:01.983Z,80.3
2024-04-03T06:43:03.700Z,80.4
2024-04-03T06:44:03.836Z,79.8
2024-04-03T06:45:03.003Z,80
2024-04-03T06:46:01.374Z,79.8
2024-04-03T06:47:01.496Z,79.8
2024-04-03T06:48:01.727Z,80
2024-04-03T06:49:01.696Z,79.5
2024-04-03T06:50:03.425Z,79.2
2024-04-03T06:51:03.524Z,79.7
2024-04-03T06:52:01.997Z,79.3
2024-04-03T06:53:03.744Z,79.7
2024-04-03T06:54:02.222Z,79.9
2024-04-03T06:55:01.297Z,79.2
2024-04-03T06:56:01.429Z,79.5
2024-04-03T06:57:01.518Z,78.5
2024-04-03T06:58:05.023Z,78
2024-04-03T06:59:03.400Z,78.7
2024-04-03T07:00:03.448Z,78.9
2024-04-03T07:01:01.932Z,78.9
2024-04-03T07:02:02.036Z,78.4
2024-04-03T07:03:03.775Z,77.9
2024-04-03T07:04:02.209Z,77.6
2024-04-03T07:05:01.350Z,78.2
2024-04-03T07:06:03.066Z,78.6
2024-04-03T07:07:03.189Z,79.3
2024-04-03T07:08:01.641Z,78.2
2024-04-03T07:09:01.732Z,78.1
2024-04-03T07:10:01.867Z,78
2024-04-03T07:11:03.586Z,78.2
2024-04-03T07:12:03.754Z,78.2
2024-04-03T07:13:02.153Z,78.2
2024-04-03T07:14:02.904Z,78.2
2024-04-03T07:15:01.365Z,78.4
2024-04-03T07:16:03.062Z,78.9
2024-04-03T07:17:01.546Z,78.4
2024-04-03T07:18:03.362Z,77.7
2024-04-03T07:19:03.383Z,78.5
2024-04-03T07:20:03.539Z,78.3
2024-04-03T07:21:01.989Z,77.8
2024-04-03T07:22:03.707Z,77.9
2024-04-03T07:23:03.804Z,77.7
2024-04-03T07:24:01.285Z,77.4
2024-04-03T07:25:03.041Z,78.5
2024-04-03T07:26:01.495Z,78.7
2024-04-03T07:27:01.599Z,78.3
2024-04-03T07:28:01.738Z,78.5
2024-04-03T07:29:01.802Z,78.2
2024-04-03T07:30:03.541Z,77.9
2024-04-03T07:31:03.718Z,78.3
2024-04-03T07:32:02.155Z,78.1
2024-04-03T07:33:02.215Z,77.4
2024-04-03T07:34:02.981Z,77.9
2024-04-03T07:35:01.437Z,77.7
2024-04-03T07:36:01.520Z,77.9
2024-04-03T07:37:01.594Z,78
2024-04-03T07:38:03.386Z,78.2
2024-04-03T07:39:01.820Z,78.3
2024-04-03T07:40:03.521Z,78.3
2024-04-03T07:41:02.040Z,78.1
2024-04-03T07:42:02.143Z,78
2024-04-03T07:43:01.266Z,78.6
2024-04-03T07:44:02.999Z,77.8
2024-04-03T07:45:03.134Z,78.8
2024-04-03T07:46:03.316Z,77.9
2024-04-03T07:47:01.682Z,78.3
2024-04-03T07:48:01.806Z,78.5
2024-04-03T07:49:03.511Z,78
2024-04-03T07:50:03.610Z,77.9
2024-04-03T07:51:02.120Z,77.7
2024-04-03T07:52:02.192Z,78.1
2024-04-03T07:53:01.305Z,77.5
2024-04-03T07:54:01.439Z,77.9
2024-04-03T07:55:03.134Z,77.9
2024-04-03T07:56:01.601Z,77.9
2024-04-03T07:57:03.380Z,78.3
2024-04-03T07:58:03.454Z,78.3
2024-04-03T07:59:01.921Z,77.5
2024-04-03T08:00:02.081Z,77.6
2024-04-03T08:01:02.133Z,77.6
2024-04-03T08:02:03.914Z,77.1
2024-04-03T08:03:03.667Z,76.3
2024-04-03T08:04:03.070Z,75.9
2024-04-03T08:05:01.515Z,76.2
2024-04-03T08:06:01.648Z,77.1
2024-04-03T08:07:01.734Z,77.4
2024-04-03T08:08:01.859Z,76.1
2024-04-03T08:09:01.934Z,75.5
2024-04-03T08:10:03.685Z,75.8
2024-04-03T08:11:02.153Z,76.3
2024-04-03T08:13:01.375Z,76.9
2024-04-03T08:14:01.486Z,76.4
2024-04-03T08:15:01.561Z,76.1
2024-04-03T08:16:01.684Z,74.9
2024-04-03T08:17:01.755Z,75.2
2024-04-03T08:18:01.901Z,75.3
2024-04-03T08:19:01.955Z,75.2
2024-04-03T08:20:02.104Z,74.9
2024-04-03T08:21:02.206Z,74.9
2024-04-03T08:22:01.299Z,75.1
2024-04-03T08:23:03.031Z,75.6
2024-04-03T08:24:01.528Z,75.4
2024-04-03T08:25:01.611Z,75.6
2024-04-03T08:26:01.725Z,76
2024-04-03T08:27:03.473Z,76
2024-04-03T08:28:04.556Z,74.3
2024-04-03T08:29:02.033Z,74.7
2024-04-03T08:30:02.201Z,74.8
2024-04-03T08:31:03.882Z,74.9
2024-04-03T08:32:01.322Z,74.4
2024-04-03T08:33:01.475Z,74.6
2024-04-03T08:34:09.465Z,74.6
2024-04-03T08:35:01.648Z,74.5
2024-04-03T08:36:03.430Z,74
2024-04-03T08:37:01.846Z,74.7
2024-04-03T08:38:03.138Z,75.2
2024-04-03T08:39:02.042Z,74.6
2024-04-03T08:40:03.798Z,74.9
2024-04-03T08:41:01.250Z,75.2
2024-04-03T08:42:01.345Z,75
2024-04-03T08:43:01.474Z,75.2
2024-04-03T08:44:03.198Z,74.8
2024-04-03T08:45:03.348Z,74.5
2024-04-03T08:46:03.527Z,76
2024-04-03T08:47:03.554Z,76
2024-04-03T08:48:02.041Z,74.7
2024-04-03T08:49:03.735Z,75.4
2024-04-03T08:50:02.216Z,76.5
2024-04-03T08:51:01.354Z,75.4
2024-04-03T08:52:03.072Z,74.9
2024-04-03T08:53:03.161Z,75.5
2024-04-03T08:54:03.259Z,74.9
2024-04-03T08:55:03.424Z,75.6
2024-04-03T08:56:01.866Z,75
2024-04-03T08:57:01.931Z,75.7
2024-04-03T08:58:03.675Z,75.5
2024-04-03T08:59:03.788Z,75.5
2024-04-03T09:00:01.268Z,75.4
2024-04-03T09:01:01.493Z,75.4
2024-04-03T09:02:03.113Z,75.3
2024-04-03T09:03:01.646Z,74.8
2024-04-03T09:04:03.518Z,74.4
2024-04-03T09:05:01.771Z,74.4
2024-04-03T09:06:03.555Z,72.9
2024-04-03T09:07:02.021Z,72.7
2024-04-03T09:08:09.824Z,73
2024-04-03T09:09:03.853Z,72.9
2024-04-03T09:10:02.951Z,74.4
2024-04-03T09:11:01.409Z,71.9
2024-04-03T09:12:01.535Z,72.1
2024-04-03T09:13:01.639Z,72.1
2024-04-03T09:14:03.313Z,71.6
2024-04-03T09:15:01.802Z,72.1
2024-04-03T09:16:01.930Z,71
2024-04-03T09:17:03.340Z,71.9
2024-04-03T09:18:02.120Z,71.5
2024-04-03T09:19:03.961Z,71.2
2024-04-03T09:20:01.371Z,71.6
2024-04-03T09:21:03.095Z,71
2024-04-03T09:22:01.557Z,71.6
2024-04-03T09:23:03.249Z,72
2024-04-03T09:24:03.379Z,71.1
2024-04-03T09:25:01.825Z,71.7
2024-04-03T09:26:03.600Z,71.7
2024-04-03T09:27:02.062Z,71.9
2024-04-03T09:28:02.167Z,72.3
2024-04-03T09:29:01.260Z,71.2
2024-04-03T09:30:01.351Z,70
2024-04-03T09:31:03.116Z,70.4
2024-04-03T09:32:01.609Z,71.4
2024-04-03T09:33:01.684Z,71.8
2024-04-03T09:34:03.413Z,72
2024-04-03T09:35:03.546Z,72
2024-04-03T09:36:01.979Z,71.1
2024-04-03T09:37:02.082Z,70.5
2024-04-03T09:38:02.198Z,71.2
2024-04-03T09:39:02.921Z,69.8
2024-04-03T09:40:03.031Z,70.7
2024-04-03T09:41:01.525Z,70.7
2024-04-03T09:42:01.621Z,70.5
2024-04-03T09:43:01.679Z,70.9
2024-04-03T09:44:02.950Z,69.8
2024-04-03T09:45:01.958Z,70.4
2024-04-03T09:46:03.860Z,70.2
2024-04-03T09:47:02.198Z,70.9
2024-04-03T09:48:02.280Z,70.6
2024-04-03T09:49:02.985Z,70.6
2024-04-03T09:50:01.469Z,70.4
2024-04-03T09:51:01.563Z,70.4
2024-04-03T09:52:01.714Z,70.4
2024-04-03T09:53:01.761Z,70.2
2024-04-03T09:54:01.891Z,71.1
2024-04-03T09:55:03.627Z,70.8
2024-04-03T09:56:02.089Z,70.9
2024-04-03T09:57:02.197Z,71
2024-04-03T09:58:01.310Z,71
2024-04-03T09:59:01.376Z,71
2024-04-03T10:00:01.460Z,70.5
2024-04-03T10:01:01.601Z,71.1
2024-04-03T10:02:01.712Z,71.9
2024-04-03T10:03:03.396Z,71.1
2024-04-03T10:04:01.876Z,70.7
2024-04-03T10:05:03.650Z,71.9
2024-04-03T10:06:02.110Z,71.5
2024-04-03T10:07:03.924Z,71
2024-04-03T10:08:02.896Z,71.5
2024-04-03T10:09:01.427Z,71.5
2024-04-03T10:10:01.511Z,71
2024-04-03T10:11:01.627Z,70.9
2024-04-03T10:12:01.755Z,71.4
2024-04-03T10:13:01.884Z,70.7
2024-04-03T10:14:01.955Z,70.5
2024-04-03T10:15:02.100Z,71.4
2024-04-03T10:16:03.890Z,71.4
2024-04-03T10:18:02.998Z,71.5
2024-04-03T10:19:01.486Z,71.7
2024-04-03T10:20:01.597Z,72.3
2024-04-03T10:21:01.689Z,72.7
2024-04-03T10:22:01.779Z,71.6
2024-04-03T10:23:01.893Z,71.5
2024-04-03T10:24:02.025Z,70.9
2024-04-03T10:25:03.729Z,71.7
2024-04-03T10:26:02.195Z,71.8
2024-04-03T10:27:01.279Z,72.1
2024-04-03T10:28:03.013Z,72.2
2024-04-03T10:29:03.401Z,71.3
2024-04-03T10:30:01.580Z,72
2024-04-03T10:31:03.616Z,72.4
2024-04-03T10:32:03.447Z,71.5
2024-04-03T10:33:03.639Z,72.3
2024-04-03T10:34:03.639Z,71.3
2024-04-03T10:35:02.164Z,71.8
2024-04-03T10:36:02.211Z,71.7
2024-04-03T10:37:01.280Z,71.4
2024-04-03T10:38:01.403Z,71.4
2024-04-03T10:39:01.519Z,72.2
2024-04-03T10:40:01.694Z,72.8
2024-04-03T10:41:01.703Z,72.6
2024-04-03T10:42:03.445Z,72.3
2024-04-03T10:43:03.592Z,72.2
2024-04-03T10:44:03.684Z,72.1
2024-04-03T10:45:02.184Z,72.2
2024-04-03T10:46:03.931Z,72.3
2024-04-03T10:47:03.016Z,72.2
2024-04-03T10:48:03.069Z,71.8
2024-04-03T10:49:03.168Z,72.6
2024-04-03T10:50:03.291Z,72.7
2024-04-03T10:51:01.781Z,72.5
2024-04-03T10:52:01.860Z,72.6
2024-04-03T10:53:01.950Z,72.6
2024-04-03T10:54:02.123Z,72.6
2024-04-03T10:55:03.804Z,71.4
2024-04-03T10:56:02.895Z,71.6
2024-04-03T10:57:01.415Z,72.5
2024-04-03T10:58:03.106Z,72.8
2024-04-03T10:59:01.583Z,72.5
2024-04-03T11:00:03.312Z,72.5
2024-04-03T11:01:03.454Z,72
2024-04-03T11:02:01.919Z,72.2
2024-04-03T11:03:01.971Z,72.2
2024-04-03T11:04:03.727Z,72.8
2024-04-03T11:05:03.846Z,72.6
2024-04-03T11:06:01.320Z,72
2024-04-03T11:07:03.039Z,72.5
2024-04-03T11:08:03.121Z,72.8
2024-04-03T11:09:01.653Z,72.6
2024-04-03T11:10:03.357Z,73.2
2024-04-03T11:11:01.804Z,72.9
2024-04-03T11:12:03.588Z,73.2
2024-04-03T11:13:02.013Z,73.4
2024-04-03T11:14:03.783Z,72.8
2024-04-03T11:15:02.213Z,71.9
2024-04-03T11:16:02.952Z,72.9
2024-04-03T11:17:03.070Z,72.7
2024-04-03T11:18:01.533Z,72.6
2024-04-03T11:19:03.282Z,72
2024-04-03T11:20:01.779Z,71.6
2024-04-03T11:21:01.845Z,71.7
2024-04-03T11:22:01.933Z,73.6
2024-04-03T11:23:03.679Z,73.2
2024-04-03T11:24:02.221Z,72.4
2024-04-03T11:25:02.946Z,72.4
2024-04-03T11:26:01.356Z,71.5
2024-04-03T11:27:01.492Z,72.7
2024-04-03T11:28:01.599Z,72.3
2024-04-03T11:29:01.690Z,72
2024-04-03T11:30:01.819Z,72.9
2024-04-03T11:31:03.533Z,71.7
2024-04-03T11:32:02.070Z,72.1
2024-04-03T11:33:02.158Z,71.7
2024-04-03T11:34:02.185Z,71.3
2024-04-03T11:35:01.299Z,70.9
2024-04-03T11:36:01.435Z,70.8
2024-04-03T11:37:01.544Z,70.1
2024-04-03T11:38:01.662Z,70.9
2024-04-03T11:39:01.781Z,71.2
2024-04-03T11:40:01.945Z,70.6
2024-04-03T11:41:03.532Z,70.3
2024-04-03T11:42:03.699Z,70
2024-04-03T11:43:03.810Z,70.6
2024-04-03T11:44:01.287Z,70.6
2024-04-03T11:45:01.349Z,70
2024-04-03T11:46:10.328Z,69.8
2024-04-03T11:47:01.561Z,70
2024-04-03T11:48:03.290Z,70.1
2024-04-03T11:49:01.774Z,70.1
2024-04-03T11:50:01.943Z,70.2
2024-04-03T11:51:02.014Z,69.6
2024-04-03T11:52:03.742Z,69.9
2024-04-03T11:53:02.231Z,70.3
2024-04-03T11:54:01.499Z,70.6
2024-04-03T11:55:03.118Z,70.6
2024-04-03T11:56:01.576Z,70.2
2024-04-03T11:57:03.302Z,70.2
2024-04-03T11:58:01.778Z,70.2
2024-04-03T11:59:03.522Z,70.4
2024-04-03T12:00:01.960Z,70.6
2024-04-03T12:01:02.083Z,71.1
2024-04-03T12:02:03.819Z,70.7
2024-04-03T12:03:02.879Z,70.3
2024-04-03T12:04:01.357Z,70.6
2024-04-03T12:05:01.453Z,70.1
2024-04-03T12:06:03.271Z,69.9
2024-04-03T12:07:01.694Z,70.9
2024-04-03T12:08:03.433Z,71.6
2024-04-03T12:09:01.936Z,72.4
2024-04-03T12:10:03.622Z,72.1
2024-04-03T12:11:02.103Z,71.9
2024-04-03T12:12:02.217Z,70.9
2024-04-03T12:13:01.291Z,70.9
2024-04-03T12:14:03.062Z,70.8
2024-04-03T12:15:01.469Z,69.9
2024-04-03T12:16:01.615Z,71
2024-04-03T12:17:03.332Z,70
2024-04-03T12:18:01.807Z,70.4
2024-04-03T12:19:03.577Z,69.1
2024-04-03T12:20:02.023Z,69.1
2024-04-03T12:21:02.124Z,69.1
2024-04-03T12:22:03.937Z,68.5
2024-04-03T12:23:01.458Z,68.6
2024-04-03T12:24:01.506Z,67.9
2024-04-03T12:25:01.623Z,69.4
2024-04-03T12:26:01.667Z,68.5
2024-04-03T12:27:01.928Z,69.6
2024-04-03T12:28:01.990Z,68
2024-04-03T12:29:02.069Z,69.2
2024-04-03T12:30:03.718Z,67.9
2024-04-03T12:31:02.229Z,67.5
2024-04-03T12:32:02.893Z,68.3
2024-04-03T12:33:01.369Z,67
2024-04-03T12:34:03.113Z,66.8
2024-04-03T12:35:03.218Z,68
2024-04-03T12:36:01.659Z,67.5
2024-04-03T12:37:09.082Z,67.5
2024-04-03T12:38:20.739Z,66.8
2024-04-03T12:39:01.959Z,67.4
2024-04-03T12:40:03.684Z,66.3
2024-04-03T12:41:02.219Z,66
2024-04-03T12:42:01.301Z,66.4
2024-04-03T12:43:03.092Z,66.6
2024-04-03T12:44:03.160Z,66.7
2024-04-03T12:45:01.654Z,67.3
2024-04-03T12:46:03.479Z,68.5
2024-04-03T12:47:01.847Z,68
2024-04-03T12:48:01.947Z,68.1
2024-04-03T12:49:03.667Z,68.4
2024-04-03T12:50:02.181Z,68.2
2024-04-03T12:51:03.877Z,68.6
2024-04-03T12:52:03.032Z,68.9
2024-04-03T12:53:01.469Z,68.4
2024-04-03T12:54:01.545Z,69
2024-04-03T12:55:03.322Z,67.4
2024-04-03T12:56:03.420Z,68.3
2024-04-03T12:57:03.512Z,68.3
2024-04-03T12:58:01.978Z,68.9
2024-04-03T12:59:03.721Z,67.6
2024-04-03T13:00:02.159Z,68
2024-04-03T13:01:01.271Z,69.2
2024-04-03T13:02:01.361Z,68.3
2024-04-03T13:03:03.118Z,67.1
2024-04-03T13:04:01.601Z,66.8
2024-04-03T13:05:03.339Z,67.4
2024-04-03T13:06:03.423Z,68.8
2024-04-03T13:07:03.513Z,68
2024-04-03T13:08:03.654Z,67.1
2024-04-03T13:09:03.740Z,67.7
2024-04-03T13:10:02.210Z,66.5
2024-04-03T13:11:02.897Z,67.2
2024-04-03T13:12:01.407Z,68
2024-04-03T13:13:01.499Z,67.4
2024-04-03T13:14:01.581Z,67.3
2024-04-03T13:15:01.761Z,67.9
2024-04-03T13:16:01.818Z,67
2024-04-03T13:17:03.605Z,66.8
2024-04-03T13:18:02.022Z,67.3
2024-04-03T13:19:03.785Z,67
2024-04-03T13:20:02.225Z,66.9
2024-04-03T13:21:01.332Z,66.2
2024-04-03T13:22:01.440Z,66
2024-04-03T13:23:01.579Z,66.1
2024-04-03T13:24:03.326Z,66.5
2024-04-03T13:25:03.397Z,66
2024-04-03T13:26:01.883Z,66
2024-04-03T13:27:01.982Z,66.3
2024-04-03T13:28:02.082Z,67
2024-04-03T13:29:02.182Z,67.2
2024-04-03T13:30:01.267Z,67.6
2024-04-03T13:31:01.450Z,68.5